OMAASBRF

Guest
Details From OMAA - Abu Dhabi Intl
To SBRF - Recife Intl
Flight Number -
Tags Generated
Created
Modified
Stats Distance 5,583 nm / 10,340 km
Max Altitude 0 ft / 0 m
Waypoints 6
Social Downloads 1
Likes 0
Share VATSIM

Download

Looking for another format? Having issues loading an existing format? Contact us
Advertisement - Login to hide

Notes

Generated

Route

OMAA DEBAS R2232 BOSSO REC07 SBRF

ID Type Via Altitude Latitude Longitude Leg Dist Tot Dist Heading (true) Name
O OMAA APT - 0 ft / 0 m 24.44439˚ 54.63521˚ - 0 nm - -
DEBAS FIX - 0 ft / 0 m 23.18292˚ 46.45778˚ 455 nm 455 nm 262° / 259° -
R2232 FIX - 0 ft / 0 m 21.70274˚ 39.12687˚ 416 nm 872 nm 259° / 256° -
BOSSO FIX - 0 ft / 0 m 13.54987˚ 13.04936˚ 1568 nm 2440 nm 256° / 248° -
REC07 FIX - 0 ft / 0 m -8.03347˚ -34.79491˚ 3133 nm 5573 nm 248° / 246° -
O SBRF APT - 0 ft / 0 m -8.12516˚ -34.92862˚ 9 nm 5583 nm 235° / 235° -

Altitude Profile

Advertisement - Login to hide

Weather


0- 5 10 15 20 25 30 35+ Temperature / ° C

Clouds and Precipitation
Forecast for 2018-05-24 12:00 UTC. Updated 5 hours ago

Ground ~20,000 ft ~40,000 ft Winds

OMAA

Details ICAO OMAA (AUH)
Name ABU DHABI INTL
Region United Arab Emirates
Timezone Asia/Dubai (UTC+4.0)
Stats Elevation 88 ft / 27 m (AMSL)
Location 24.433049° 54.651182°
Runways 1
Magnetic Variation 2.000° E

METAR

OMAA 241600Z 35008KT 300V010 CAVOK 32/22 Q1004 NOSIG

Decode

TAF

TAF OMAA 241100Z 2412/2518 34014KT 8000 NSC BECMG 2419/2421 06006KT BECMG 2502/2504 16012KT BECMG 2509/2511 31012KT

Decode

Departure Runways

ID Width Length Bearing (true) Bearing (mag) Surface Threshold Offset Overrun Length
13 148 ft / 45 m 13,461 ft / 4,103 m 127.94° 125.94° Asphalt 0 ft / 0 m 180 ft / 55 m
31 148 ft / 45 m 13,461 ft / 4,103 m 307.95° 305.95° Asphalt 0 ft / 0 m 196 ft / 60 m

SBRF

Details ICAO SBRF (REC)
Name Recife Intl
Region Brazil
Timezone America/Recife (UTC-3.0)
Stats Elevation 33 ft / 10 m (AMSL)
Location -8.127896° -34.922981°
Runways 2
Magnetic Variation 22.074° W

METAR

SBRF 241600Z 16014KT 9999 SCT025 29/22 Q1014

Decode

TAF

TAF SBRF 241000Z 2412/2512 12010KT 9999 SCT023 TX29/2415Z TN26/2506Z RMK PEA

Decode

Destination Runways

ID Width Length Bearing (true) Bearing (mag) Surface Threshold Offset Overrun Length
01 98 ft / 30 m 4,979 ft / 1,518 m 304.20° 326.27° Asphalt 300 ft / 91 m 0 ft / 0 m
18 148 ft / 45 m 9,915 ft / 3,022 m 161.91° 183.98° Asphalt 1,225 ft / 373 m 0 ft / 0 m
19 98 ft / 30 m 4,979 ft / 1,518 m 124.20° 146.27° Asphalt 300 ft / 91 m 0 ft / 0 m
36 148 ft / 45 m 9,915 ft / 3,022 m 341.91° 3.98° Asphalt 0 ft / 0 m 350 ft / 107 m

Approach Navaids

Runway Type Ident Frequency Range Bearing (true) Bearing (mag) Slope Elevation
18 Localiser IRF 110.30 MHz 18 nm / 33 km 161.91° 183.98° - 33 ft / 10 m (AMSL)
18 Glidescope IRF 110.30 MHz 10 nm / 19 km 161.91° 183.98° 3.00° 33 ft / 10 m (AMSL)